^^
Saratoga-Weather Station Historical Data
Daily Summary for January 24, 2021 Units:  Both    English   Metric
Daily Weekly Monthly Yearly Custom
  High: Low: Average:
Temperature: 37.8 °F /  3.2 °C 33.3 °F /  0.7 °C 34.7 °F /  1.5 °C
Dew Point: 33.6 °F /  0.9 °C 29.7 °F /  -1.3 °C 31.1 °F /  -0.5 °C
Humidity: 94% 74% 86%
Wind Speed: 16.1mph /  25.9km/h - 3.9mph /  6.3km/h
Wind Gust: 20mph /  32.2km/h - -
Wind- - SW
Pressure: 29.6 in /  1002.7 hPa 29.3 in /  992.9 hPa -
Precipitation: 0.01 in /  0.2 mm    
Historical Graphs
 
 
Tabular Data for January 24, 2021
Time Temperature Dew Point Pressure Wind Wind Speed Wind Gust Humidity Rainfall Rate (Hourly) solar
00:04 35.4 °F /  1.9 °C 33.6 °F /  0.9 °C 29.3in /  992.9hPa West 6.9mph /  11.1km/h 11mph /  17.7km/h 93% 0.03in /  0.8mm 0 W/m2
00:09 35.2 °F /  1.8 °C 33.4 °F /  0.8 °C 29.3in /  993.2hPa WNW 4mph /  6.4km/h 16mph /  25.7km/h 93% 0.02in /  0.5mm 0 W/m2
00:14 35.2 °F /  1.8 °C 33.4 °F /  0.8 °C 29.3in /  993.2hPa WNW 15mph /  24.1km/h 16mph /  25.7km/h 93% 0.02in /  0.5mm 0 W/m2
00:19 35.1 °F /  1.7 °C 33.3 °F /  0.7 °C 29.3in /  993.2hPa WNW 10.1mph /  16.3km/h 10mph /  16.1km/h 93% 0.01in /  0.2mm 0 W/m2
00:24 35.1 °F /  1.7 °C 33.3 °F /  0.7 °C 29.3in /  993.6hPa WNW 10.1mph /  16.3km/h 16mph /  25.7km/h 93% 0.01in /  0.2mm 0 W/m2
00:29 34.9 °F /  1.6 °C 33.1 °F /  0.6 °C 29.3in /  993.6hPa WSW 6.9mph /  11.1km/h 13mph /  20.9km/h 93% 0in /  0.0mm 0 W/m2
00:34 34.9 °F /  1.6 °C 33.3 °F /  0.7 °C 29.3in /  993.6hPa West 6mph /  9.7km/h 13mph /  20.9km/h 94% 0.01in /  0.2mm 0 W/m2
00:39 34.9 °F /  1.6 °C 33.1 °F /  0.6 °C 29.3in /  993.6hPa West 10.1mph /  16.3km/h 10mph /  16.1km/h 93% 0.01in /  0.2mm 0 W/m2
00:44 34.7 °F /  1.5 °C 33.1 °F /  0.6 °C 29.3in /  993.6hPa SW 4mph /  6.4km/h 15mph /  24.1km/h 94% 0.01in /  0.2mm 0 W/m2
00:49 34.9 °F /  1.6 °C 33.3 °F /  0.7 °C 29.3in /  993.6hPa WNW 12.1mph /  19.5km/h 18mph /  29km/h 94% 0.01in /  0.2mm 0 W/m2
00:54 34.9 °F /  1.6 °C 33.1 °F /  0.6 °C 29.4in /  993.9hPa West 11mph /  17.7km/h 19mph /  30.6km/h 93% 0.01in /  0.2mm 0 W/m2
00:59 35.1 °F /  1.7 °C 33.3 °F /  0.7 °C 29.4in /  993.9hPa WNW 13mph /  20.9km/h 17mph /  27.4km/h 93% 0.01in /  0.2mm 0 W/m2
01:04 35.1 °F /  1.7 °C 33.3 °F /  0.7 °C 29.4in /  994.2hPa NW 16.1mph /  25.9km/h 19mph /  30.6km/h 93% 0.01in /  0.2mm 0 W/m2
01:09 35.2 °F /  1.8 °C 33.1 °F /  0.6 °C 29.4in /  994.2hPa NW 6.9mph /  11.1km/h 13mph /  20.9km/h 92% 0.01in /  0.2mm 0 W/m2
01:14 35.2 °F /  1.8 °C 33.1 °F /  0.6 °C 29.4in /  994.2hPa WNW 4mph /  6.4km/h 9mph /  14.5km/h 92% 0.01in /  0.2mm 0 W/m2
01:19 35.2 °F /  1.8 °C 33.1 °F /  0.6 °C 29.4in /  994.2hPa WNW 8.1mph /  13km/h 13mph /  20.9km/h 92% 0.01in /  0.2mm 0 W/m2
01:24 35.2 °F /  1.8 °C 33.1 °F /  0.6 °C 29.4in /  994.2hPa WNW 10.1mph /  16.3km/h 15mph /  24.1km/h 92% 0.01in /  0.2mm 0 W/m2
01:29 35.2 °F /  1.8 °C 32.9 °F /  0.5 °C 29.4in /  994.2hPa West 8.1mph /  13km/h 10mph /  16.1km/h 91% 0.01in /  0.2mm 0 W/m2
01:34 35.2 °F /  1.8 °C 32.9 °F /  0.5 °C 29.4in /  994.6hPa NW 8.1mph /  13km/h 16mph /  25.7km/h 91% 0in /  0.0mm 0 W/m2
01:39 35.2 °F /  1.8 °C 32.9 °F /  0.5 °C 29.4in /  994.6hPa SW 6mph /  9.7km/h 12mph /  19.3km/h 91% 0in /  0.0mm 0 W/m2
01:44 35.1 °F /  1.7 °C 32.7 °F /  0.4 °C 29.4in /  994.9hPa West 8.9mph /  14.3km/h 15mph /  24.1km/h 91% 0in /  0.0mm 0 W/m2
01:49 35.1 °F /  1.7 °C 32.7 °F /  0.4 °C 29.4in /  994.9hPa WNW 8.1mph /  13km/h 18mph /  29km/h 91% 0in /  0.0mm 0 W/m2
01:54 35.1 °F /  1.7 °C 32.4 °F /  0.2 °C 29.4in /  994.9hPa WSW 4.9mph /  7.9km/h 12mph /  19.3km/h 90% 0in /  0.0mm 0 W/m2
01:59 35.1 °F /  1.7 °C 32.4 °F /  0.2 °C 29.4in /  994.9hPa WSW 6.9mph /  11.1km/h 18mph /  29km/h 90% 0in /  0.0mm 0 W/m2
02:04 34.9 °F /  1.6 °C 32.2 °F /  0.1 °C 29.4in /  994.9hPa WSW 15mph /  24.1km/h 15mph /  24.1km/h 90% 0in /  0.0mm 0 W/m2
02:09 34.9 °F /  1.6 °C 32 °F /  0 °C 29.4in /  995.3hPa WSW 10.1mph /  16.3km/h 12mph /  19.3km/h 89% 0in /  0.0mm 0 W/m2
02:14 34.9 °F /  1.6 °C 32 °F /  0 °C 29.4in /  995.3hPa NW 8.9mph /  14.3km/h 12mph /  19.3km/h 89% 0in /  0.0mm 0 W/m2
02:19 34.9 °F /  1.6 °C 32.2 °F /  0.1 °C 29.4in /  995.3hPa WNW 4.9mph /  7.9km/h 13mph /  20.9km/h 90% 0in /  0.0mm 0 W/m2
02:25 34.9 °F /  1.6 °C 32 °F /  0 °C 29.4in /  995.3hPa West 6.9mph /  11.1km/h 15mph /  24.1km/h 89% 0in /  0.0mm 0 W/m2
02:30 34.7 °F /  1.5 °C 31.8 °F /  -0.1 °C 29.4in /  995.3hPa WNW 8.9mph /  14.3km/h 14mph /  22.5km/h 89% 0in /  0.0mm 0 W/m2
02:35 34.5 °F /  1.4 °C 31.6 °F /  -0.2 °C 29.4in /  995.6hPa WNW 8.1mph /  13km/h 13mph /  20.9km/h 89% 0in /  0.0mm 0 W/m2
02:40 34.5 °F /  1.4 °C 31.6 °F /  -0.2 °C 29.4in /  995.6hPa West 8.1mph /  13km/h 14mph /  22.5km/h 89% 0in /  0.0mm 0 W/m2
02:45 34.5 °F /  1.4 °C 31.6 °F /  -0.2 °C 29.4in /  995.9hPa WNW 6.9mph /  11.1km/h 13mph /  20.9km/h 89% 0in /  0.0mm 0 W/m2
02:50 34.5 °F /  1.4 °C 31.6 °F /  -0.2 °C 29.4in /  995.9hPa WSW 8.1mph /  13km/h 13mph /  20.9km/h 89% 0in /  0.0mm 0 W/m2
02:55 34.3 °F /  1.3 °C 31.5 °F /  -0.3 °C 29.4in /  995.9hPa WNW 6.9mph /  11.1km/h 11mph /  17.7km/h 89% 0in /  0.0mm 0 W/m2
03:00 34.3 °F /  1.3 °C 31.5 °F /  -0.3 °C 29.4in /  995.9hPa WNW 8.9mph /  14.3km/h 10mph /  16.1km/h 89% 0in /  0.0mm 0 W/m2
03:05 34.3 °F /  1.3 °C 31.5 °F /  -0.3 °C 29.4in /  995.9hPa WNW 8.9mph /  14.3km/h 10mph /  16.1km/h 89% 0in /  0.0mm 0 W/m2
03:10 34.3 °F /  1.3 °C 31.5 °F /  -0.3 °C 29.4in /  996.3hPa NW 4.9mph /  7.9km/h 15mph /  24.1km/h 89% 0in /  0.0mm 0 W/m2
03:15 34.3 °F /  1.3 °C 31.5 °F /  -0.3 °C 29.4in /  996.3hPa West 8.9mph /  14.3km/h 10mph /  16.1km/h 89% 0in /  0.0mm 0 W/m2
03:20 34.3 °F /  1.3 °C 31.5 °F /  -0.3 °C 29.4in /  996.3hPa WSW 4mph /  6.4km/h 14mph /  22.5km/h 89% 0in /  0.0mm 0 W/m2
03:25 34.3 °F /  1.3 °C 31.5 °F /  -0.3 °C 29.4in /  996.3hPa WSW 6.9mph /  11.1km/h 11mph /  17.7km/h 89% 0in /  0.0mm 0 W/m2
03:30 34.2 °F /  1.2 °C 31.3 °F /  -0.4 °C 29.4in /  996.3hPa West 6mph /  9.7km/h 14mph /  22.5km/h 89% 0in /  0.0mm 0 W/m2
03:35 34.2 °F /  1.2 °C 31.3 °F /  -0.4 °C 29.4in /  996.6hPa WNW 8.9mph /  14.3km/h 12mph /  19.3km/h 89% 0in /  0.0mm 0 W/m2
03:40 34.2 °F /  1.2 °C 30.9 °F /  -0.6 °C 29.4in /  996.6hPa WSW 4.9mph /  7.9km/h 12mph /  19.3km/h 88% 0in /  0.0mm 0 W/m2
03:45 34 °F /  1.1 °C 31.1 °F /  -0.5 °C 29.4in /  996.6hPa West 8.1mph /  13km/h 12mph /  19.3km/h 89% 0in /  0.0mm 0 W/m2
03:50 34 °F /  1.1 °C 30.7 °F /  -0.7 °C 29.4in /  997.0hPa WSW 6.9mph /  11.1km/h 18mph /  29km/h 88% 0in /  0.0mm 0 W/m2
03:55 34 °F /  1.1 °C 30.7 °F /  -0.7 °C 29.4in /  997.0hPa West 10.1mph /  16.3km/h 11mph /  17.7km/h 88% 0in /  0.0mm 0 W/m2
04:00 34 °F /  1.1 °C 30.7 °F /  -0.7 °C 29.4in /  997.0hPa West 10.1mph /  16.3km/h 18mph /  29km/h 88% 0in /  0.0mm 0 W/m2
04:05 33.8 °F /  1 °C 30.6 °F /  -0.8 °C 29.4in /  997.0hPa West 6.9mph /  11.1km/h 9mph /  14.5km/h 88% 0in /  0.0mm 0 W/m2
04:10 33.6 °F /  0.9 °C 30.4 °F /  -0.9 °C 29.4in /  997.0hPa WSW 4.9mph /  7.9km/h 9mph /  14.5km/h 88% 0in /  0.0mm 0 W/m2
04:15 33.6 °F /  0.9 °C 30.4 °F /  -0.9 °C 29.5in /  997.3hPa West 2.9mph /  4.7km/h 13mph /  20.9km/h 88% 0in /  0.0mm 0 W/m2
04:20 33.6 °F /  0.9 °C 30.4 °F /  -0.9 °C 29.5in /  997.3hPa WNW 8.9mph /  14.3km/h 12mph /  19.3km/h 88% 0in /  0.0mm 0 W/m2
04:25 33.6 °F /  0.9 °C 30.4 °F /  -0.9 °C 29.5in /  997.3hPa West 2.9mph /  4.7km/h 10mph /  16.1km/h 88% 0in /  0.0mm 0 W/m2
04:30 33.8 °F /  1 °C 30.6 °F /  -0.8 °C 29.5in /  997.3hPa NW 8.9mph /  14.3km/h 13mph /  20.9km/h 88% 0in /  0.0mm 0 W/m2
04:35 33.8 °F /  1 °C 30.6 °F /  -0.8 °C 29.5in /  997.6hPa WSW 8.9mph /  14.3km/h 10mph /  16.1km/h 88% 0in /  0.0mm 0 W/m2
04:40 33.8 °F /  1 °C 30.6 °F /  -0.8 °C 29.5in /  997.6hPa West 8.9mph /  14.3km/h 20mph /  32.2km/h 88% 0in /  0.0mm 0 W/m2
04:45 33.8 °F /  1 °C 30.4 °F /  -0.9 °C 29.5in /  997.6hPa West 6.9mph /  11.1km/h 11mph /  17.7km/h 87% 0in /  0.0mm 0 W/m2
04:50 33.8 °F /  1 °C 30.4 °F /  -0.9 °C 29.5in /  997.6hPa WNW 4.9mph /  7.9km/h 17mph /  27.4km/h 87% 0in /  0.0mm 0 W/m2
04:55 33.8 °F /  1 °C 30.4 °F /  -0.9 °C 29.5in /  998.0hPa WNW 4.9mph /  7.9km/h 10mph /  16.1km/h 87% 0in /  0.0mm 0 W/m2
05:00 34 °F /  1.1 °C 30.6 °F /  -0.8 °C 29.5in /  998.0hPa West 2.9mph /  4.7km/h 10mph /  16.1km/h 87% 0in /  0.0mm 0 W/m2
05:05 34 °F /  1.1 °C 30.6 °F /  -0.8 °C 29.5in /  998.0hPa WNW 4mph /  6.4km/h 12mph /  19.3km/h 87% 0in /  0.0mm 0 W/m2
05:10 34 °F /  1.1 °C 30.2 °F /  -1 °C 29.5in /  998.0hPa West 8.9mph /  14.3km/h 14mph /  22.5km/h 86% 0in /  0.0mm 0 W/m2
05:15 34 °F /  1.1 °C 30.2 °F /  -1 °C 29.5in /  998.0hPa WNW 6.9mph /  11.1km/h 15mph /  24.1km/h 86% 0in /  0.0mm 0 W/m2
05:20 34 °F /  1.1 °C 30.6 °F /  -0.8 °C 29.5in /  998.3hPa WSW 2.9mph /  4.7km/h 9mph /  14.5km/h 87% 0in /  0.0mm 0 W/m2
05:25 34 °F /  1.1 °C 30.6 °F /  -0.8 °C 29.5in /  998.3hPa NW 4mph /  6.4km/h 15mph /  24.1km/h 87% 0in /  0.0mm 0 W/m2
05:30 33.8 °F /  1 °C 30.4 °F /  -0.9 °C 29.5in /  998.3hPa WSW 6.9mph /  11.1km/h 11mph /  17.7km/h 87% 0in /  0.0mm 0 W/m2
05:35 33.8 °F /  1 °C 30.4 °F /  -0.9 °C 29.5in /  998.3hPa WNW 8.9mph /  14.3km/h 14mph /  22.5km/h 87% 0in /  0.0mm 0 W/m2
05:40 33.8 °F /  1 °C 30.4 °F /  -0.9 °C 29.5in /  998.6hPa WSW 4.9mph /  7.9km/h 11mph /  17.7km/h 87% 0in /  0.0mm 0 W/m2
05:45 33.8 °F /  1 °C 30.4 °F /  -0.9 °C 29.5in /  998.6hPa West 10.1mph /  16.3km/h 11mph /  17.7km/h 87% 0in /  0.0mm 0 W/m2
05:50 33.8 °F /  1 °C 30.4 °F /  -0.9 °C 29.5in /  998.6hPa West 4mph /  6.4km/h 9mph /  14.5km/h 87% 0in /  0.0mm 0 W/m2
05:55 33.6 °F /  0.9 °C 30.2 °F /  -1 °C 29.5in /  998.6hPa WNW 6.9mph /  11.1km/h 7mph /  11.3km/h 87% 0in /  0.0mm 0 W/m2
06:00 33.8 °F /  1 °C 30 °F /  -1.1 °C 29.5in /  998.6hPa SW 6.9mph /  11.1km/h 10mph /  16.1km/h 86% 0in /  0.0mm 0 W/m2
06:05 33.8 °F /  1 °C 30.4 °F /  -0.9 °C 29.5in /  998.6hPa West 2mph /  3.2km/h 8mph /  12.9km/h 87% 0in /  0.0mm 0 W/m2
06:10 33.8 °F /  1 °C 30.4 °F /  -0.9 °C 29.5in /  998.6hPa West 2.9mph /  4.7km/h 9mph /  14.5km/h 87% 0in /  0.0mm 0 W/m2
06:15 34 °F /  1.1 °C 30.6 °F /  -0.8 °C 29.5in /  998.6hPa West 6mph /  9.7km/h 12mph /  19.3km/h 87% 0in /  0.0mm 0 W/m2
06:20 33.8 °F /  1 °C 30.4 °F /  -0.9 °C 29.5in /  999.0hPa NW 8.1mph /  13km/h 12mph /  19.3km/h 87% 0in /  0.0mm 0 W/m2
06:26 33.8 °F /  1 °C 30.4 °F /  -0.9 °C 29.5in /  999.0hPa WNW 4.9mph /  7.9km/h 8mph /  12.9km/h 87% 0in /  0.0mm 0 W/m2
06:31 33.8 °F /  1 °C 30.6 °F /  -0.8 °C 29.5in /  999.0hPa West 4mph /  6.4km/h 11mph /  17.7km/h 88% 0in /  0.0mm 0 W/m2
06:36 33.8 °F /  1 °C 30.6 °F /  -0.8 °C 29.5in /  999.0hPa WNW 2.9mph /  4.7km/h 12mph /  19.3km/h 88% 0in /  0.0mm 0 W/m2
06:41 34 °F /  1.1 °C 30.6 °F /  -0.8 °C 29.5in /  999.0hPa WSW 8.9mph /  14.3km/h 17mph /  27.4km/h 87% 0in /  0.0mm 0 W/m2
06:46 34 °F /  1.1 °C 30.6 °F /  -0.8 °C 29.5in /  999.3hPa WNW 10.1mph /  16.3km/h 12mph /  19.3km/h 87% 0in /  0.0mm 0 W/m2
06:51 34 °F /  1.1 °C 30.6 °F /  -0.8 °C 29.5in /  999.0hPa West 8.9mph /  14.3km/h 17mph /  27.4km/h 87% 0in /  0.0mm 0 W/m2
06:56 34 °F /  1.1 °C 30.6 °F /  -0.8 °C 29.5in /  999.0hPa West 8.9mph /  14.3km/h 11mph /  17.7km/h 87% 0in /  0.0mm 0 W/m2
07:01 34 °F /  1.1 °C 30.6 °F /  -0.8 °C 29.5in /  999.0hPa West 6mph /  9.7km/h 9mph /  14.5km/h 87% 0in /  0.0mm 0 W/m2
07:06 34 °F /  1.1 °C 30.6 °F /  -0.8 °C 29.5in /  999.3hPa WSW 4.9mph /  7.9km/h 12mph /  19.3km/h 87% 0in /  0.0mm 0 W/m2
07:11 33.8 °F /  1 °C 30.4 °F /  -0.9 °C 29.5in /  999.0hPa WSW 8.1mph /  13km/h 17mph /  27.4km/h 87% 0in /  0.0mm 0 W/m2
07:16 33.8 °F /  1 °C 30.4 °F /  -0.9 °C 29.5in /  999.3hPa WSW 12.1mph /  19.5km/h 13mph /  20.9km/h 87% 0in /  0.0mm 0 W/m2
07:21 33.8 °F /  1 °C 30.6 °F /  -0.8 °C 29.5in /  999.3hPa WNW 2.9mph /  4.7km/h 17mph /  27.4km/h 88% 0in /  0.0mm 0 W/m2
07:26 33.6 °F /  0.9 °C 30.4 °F /  -0.9 °C 29.5in /  999.3hPa West 6.9mph /  11.1km/h 12mph /  19.3km/h 88% 0in /  0.0mm 0 W/m2
07:31 33.6 °F /  0.9 °C 30.4 °F /  -0.9 °C 29.5in /  999.7hPa WSW 11mph /  17.7km/h 16mph /  25.7km/h 88% 0in /  0.0mm 0 W/m2
07:36 33.6 °F /  0.9 °C 30.4 °F /  -0.9 °C 29.5in /  999.7hPa WSW 4mph /  6.4km/h 10mph /  16.1km/h 88% 0in /  0.0mm 0 W/m2
07:41 33.6 °F /  0.9 °C 30.4 °F /  -0.9 °C 29.5in /  999.7hPa NW 6.9mph /  11.1km/h 16mph /  25.7km/h 88% 0in /  0.0mm 0 W/m2
07:46 33.6 °F /  0.9 °C 30.4 °F /  -0.9 °C 29.5in /  999.7hPa NNW 4.9mph /  7.9km/h 11mph /  17.7km/h 88% 0in /  0.0mm 0 W/m2
07:51 33.6 °F /  0.9 °C 30.4 °F /  -0.9 °C 29.5in /  999.7hPa NW 6mph /  9.7km/h 15mph /  24.1km/h 88% 0in /  0.0mm 0 W/m2
07:56 33.4 °F /  0.8 °C 30.2 °F /  -1 °C 29.5in /  999.7hPa West 8.1mph /  13km/h 12mph /  19.3km/h 88% 0in /  0.0mm 0 W/m2
08:01 33.4 °F /  0.8 °C 30.6 °F /  -0.8 °C 29.5in /  999.7hPa West 6.9mph /  11.1km/h 13mph /  20.9km/h 89% 0in /  0.0mm 0 W/m2
08:06 33.4 °F /  0.8 °C 30.6 °F /  -0.8 °C 29.5in /  1000.0hPa SW 6.9mph /  11.1km/h 10mph /  16.1km/h 89% 0in /  0.0mm 0 W/m2
08:11 33.4 °F /  0.8 °C 30.6 °F /  -0.8 °C 29.5in /  1000.0hPa NW 2.9mph /  4.7km/h 13mph /  20.9km/h 89% 0in /  0.0mm 0 W/m2
08:16 33.4 °F /  0.8 °C 30.6 °F /  -0.8 °C 29.5in /  1000.0hPa West 6mph /  9.7km/h 9mph /  14.5km/h 89% 0in /  0.0mm 0 W/m2
08:21 33.4 °F /  0.8 °C 30.6 °F /  -0.8 °C 29.5in /  1000.0hPa WSW 8.9mph /  14.3km/h 12mph /  19.3km/h 89% 0in /  0.0mm 0 W/m2
08:26 33.4 °F /  0.8 °C 30.2 °F /  -1 °C 29.5in /  1000.3hPa WSW 8.9mph /  14.3km/h 13mph /  20.9km/h 88% 0in /  0.0mm 5 W/m2
08:31 33.4 °F /  0.8 °C 30.2 °F /  -1 °C 29.5in /  1000.3hPa West 4mph /  6.4km/h 10mph /  16.1km/h 88% 0in /  0.0mm 7 W/m2
08:36 33.4 °F /  0.8 °C 30.2 °F /  -1 °C 29.5in /  1000.3hPa West 4mph /  6.4km/h 8mph /  12.9km/h 88% 0in /  0.0mm 9 W/m2
08:41 33.3 °F /  0.7 °C 30 °F /  -1.1 °C 29.5in /  1000.3hPa WNW 6mph /  9.7km/h 8mph /  12.9km/h 88% 0in /  0.0mm 11 W/m2
08:46 33.3 °F /  0.7 °C 30 °F /  -1.1 °C 29.5in /  1000.3hPa SSW 11mph /  17.7km/h 11mph /  17.7km/h 88% 0in /  0.0mm 12 W/m2
08:51 33.3 °F /  0.7 °C 30 °F /  -1.1 °C 29.6in /  1000.7hPa WNW 4.9mph /  7.9km/h 11mph /  17.7km/h 88% 0in /  0.0mm 23 W/m2
08:56 33.3 °F /  0.7 °C 30 °F /  -1.1 °C 29.6in /  1000.7hPa West 8.9mph /  14.3km/h 14mph /  22.5km/h 88% 0in /  0.0mm 16 W/m2
09:01 33.4 °F /  0.8 °C 30.2 °F /  -1 °C 29.6in /  1000.7hPa WSW 2.9mph /  4.7km/h 12mph /  19.3km/h 88% 0in /  0.0mm 14 W/m2
09:06 33.4 °F /  0.8 °C 30.2 °F /  -1 °C 29.6in /  1001.0hPa WSW 4mph /  6.4km/h 14mph /  22.5km/h 88% 0in /  0.0mm 21 W/m2
09:11 33.4 °F /  0.8 °C 30 °F /  -1.1 °C 29.6in /  1001.0hPa West 4mph /  6.4km/h 12mph /  19.3km/h 87% 0in /  0.0mm 26 W/m2
09:16 33.4 °F /  0.8 °C 30 °F /  -1.1 °C 29.6in /  1001.0hPa WNW 2mph /  3.2km/h 5mph /  8km/h 87% 0in /  0.0mm 21 W/m2
09:21 33.4 °F /  0.8 °C 30 °F /  -1.1 °C 29.6in /  1001.0hPa WNW 8.9mph /  14.3km/h 11mph /  17.7km/h 87% 0in /  0.0mm 19 W/m2
09:26 33.4 °F /  0.8 °C 29.7 °F /  -1.3 °C 29.6in /  1001.4hPa West 2.9mph /  4.7km/h 7mph /  11.3km/h 86% 0in /  0.0mm 26 W/m2
09:31 33.4 °F /  0.8 °C 30 °F /  -1.1 °C 29.6in /  1001.4hPa West 6mph /  9.7km/h 11mph /  17.7km/h 87% 0in /  0.0mm 35 W/m2
09:36 33.3 °F /  0.7 °C 29.8 °F /  -1.2 °C 29.6in /  1001.4hPa West 6mph /  9.7km/h 9mph /  14.5km/h 87% 0in /  0.0mm 32 W/m2
09:41 33.4 °F /  0.8 °C 30.2 °F /  -1 °C 29.6in /  1001.4hPa WNW 8.1mph /  13km/h 11mph /  17.7km/h 88% 0in /  0.0mm 42 W/m2
09:46 33.4 °F /  0.8 °C 30.2 °F /  -1 °C 29.6in /  1001.4hPa WSW 2mph /  3.2km/h 10mph /  16.1km/h 88% 0in /  0.0mm 44 W/m2
09:51 33.4 °F /  0.8 °C 30.2 °F /  -1 °C 29.6in /  1001.4hPa NW 2mph /  3.2km/h 9mph /  14.5km/h 88% 0in /  0.0mm 58 W/m2
09:56 33.6 °F /  0.9 °C 30.2 °F /  -1 °C 29.6in /  1001.7hPa West 2.9mph /  4.7km/h 11mph /  17.7km/h 87% 0in /  0.0mm 60 W/m2
10:01 33.6 °F /  0.9 °C 30.2 °F /  -1 °C 29.6in /  1001.7hPa West 0.9mph /  1.4km/h 7mph /  11.3km/h 87% 0in /  0.0mm 74 W/m2
10:06 33.6 °F /  0.9 °C 30.2 °F /  -1 °C 29.6in /  1001.7hPa WNW 8.9mph /  14.3km/h 13mph /  20.9km/h 87% 0in /  0.0mm 98 W/m2
10:11 33.6 °F /  0.9 °C 29.8 °F /  -1.2 °C 29.6in /  1002.0hPa West 0.9mph /  1.4km/h 6mph /  9.7km/h 86% 0in /  0.0mm 65 W/m2
10:16 33.8 °F /  1 °C 30 °F /  -1.1 °C 29.6in /  1002.0hPa WSW 0.9mph /  1.4km/h 7mph /  11.3km/h 86% 0in /  0.0mm 79 W/m2
10:21 33.8 °F /  1 °C 30 °F /  -1.1 °C 29.6in /  1002.0hPa West 2mph /  3.2km/h 3mph /  4.8km/h 86% 0in /  0.0mm 111 W/m2
10:26 33.8 °F /  1 °C 30 °F /  -1.1 °C 29.6in /  1002.0hPa NW 2.9mph /  4.7km/h 8mph /  12.9km/h 86% 0in /  0.0mm 98 W/m2
10:31 33.8 °F /  1 °C 30 °F /  -1.1 °C 29.6in /  1002.0hPa WNW 2.9mph /  4.7km/h 6mph /  9.7km/h 86% 0in /  0.0mm 58 W/m2
10:36 33.8 °F /  1 °C 30 °F /  -1.1 °C 29.6in /  1002.0hPa WSW 0.9mph /  1.4km/h 3mph /  4.8km/h 86% 0in /  0.0mm 39 W/m2
10:41 33.8 °F /  1 °C 30 °F /  -1.1 °C 29.6in /  1002.4hPa NW 2mph /  3.2km/h 2mph /  3.2km/h 86% 0in /  0.0mm 60 W/m2
10:46 34 °F /  1.1 °C 30.2 °F /  -1 °C 29.6in /  1002.4hPa WNW 2mph /  3.2km/h 5mph /  8km/h 86% 0in /  0.0mm 35 W/m2
10:51 33.8 °F /  1 °C 30.4 °F /  -0.9 °C 29.6in /  1002.4hPa WSW 2.9mph /  4.7km/h 8mph /  12.9km/h 87% 0in /  0.0mm 44 W/m2
10:56 33.8 °F /  1 °C 30.4 °F /  -0.9 °C 29.6in /  1002.4hPa NW 0.9mph /  1.4km/h 4mph /  6.4km/h 87% 0in /  0.0mm 54 W/m2
11:01 33.8 °F /  1 °C 30.4 °F /  -0.9 °C 29.6in /  1002.4hPa West 4mph /  6.4km/h 8mph /  12.9km/h 87% 0in /  0.0mm 77 W/m2
11:06 34 °F /  1.1 °C 30.6 °F /  -0.8 °C 29.6in /  1002.4hPa WSW 2mph /  3.2km/h 4mph /  6.4km/h 87% 0in /  0.0mm 118 W/m2
11:11 34 °F /  1.1 °C 30.6 °F /  -0.8 °C 29.6in /  1002.4hPa WNW 2.9mph /  4.7km/h 8mph /  12.9km/h 87% 0in /  0.0mm 91 W/m2
11:16 34 °F /  1.1 °C 30.2 °F /  -1 °C 29.6in /  1002.7hPa WNW 2.9mph /  4.7km/h 10mph /  16.1km/h 86% 0in /  0.0mm 83 W/m2
11:21 34 °F /  1.1 °C 30.2 °F /  -1 °C 29.6in /  1002.7hPa WNW 2.9mph /  4.7km/h 3mph /  4.8km/h 86% 0in /  0.0mm 79 W/m2
11:26 34.2 °F /  1.2 °C 30.7 °F /  -0.7 °C 29.6in /  1002.7hPa NNW 2.9mph /  4.7km/h 10mph /  16.1km/h 87% 0in /  0.0mm 102 W/m2
11:31 34.2 °F /  1.2 °C 30.7 °F /  -0.7 °C 29.6in /  1002.7hPa WNW 4mph /  6.4km/h 5mph /  8km/h 87% 0in /  0.0mm 88 W/m2
11:36 34.2 °F /  1.2 °C 30.4 °F /  -0.9 °C 29.6in /  1002.7hPa NW 2mph /  3.2km/h 8mph /  12.9km/h 86% 0in /  0.0mm 142 W/m2
11:41 34.2 °F /  1.2 °C 30.4 °F /  -0.9 °C 29.6in /  1002.7hPa WSW 2.9mph /  4.7km/h 7mph /  11.3km/h 86% 0in /  0.0mm 135 W/m2
11:46 34.3 °F /  1.3 °C 30.6 °F /  -0.8 °C 29.6in /  1002.7hPa WNW 4.9mph /  7.9km/h 7mph /  11.3km/h 86% 0in /  0.0mm 165 W/m2
11:51 34.3 °F /  1.3 °C 30.4 °F /  -0.9 °C 29.6in /  1002.7hPa NW 0.9mph /  1.4km/h 4mph /  6.4km/h 85% 0in /  0.0mm 144 W/m2
11:56 34.5 °F /  1.4 °C 30.6 °F /  -0.8 °C 29.6in /  1002.7hPa West 2.9mph /  4.7km/h 5mph /  8km/h 85% 0in /  0.0mm 121 W/m2
12:01 34.5 °F /  1.4 °C 30.6 °F /  -0.8 °C 29.6in /  1002.7hPa SSW 2.9mph /  4.7km/h 16mph /  25.7km/h 85% 0in /  0.0mm 127 W/m2
12:06 34.5 °F /  1.4 °C 30.2 °F /  -1 °C 29.6in /  1002.7hPa WNW 2.9mph /  4.7km/h 6mph /  9.7km/h 84% 0in /  0.0mm 128 W/m2
12:11 34.5 °F /  1.4 °C 30.2 °F /  -1 °C 29.6in /  1002.7hPa NW 4.9mph /  7.9km/h 16mph /  25.7km/h 84% 0in /  0.0mm 105 W/m2
12:16 34.5 °F /  1.4 °C 30.2 °F /  -1 °C 29.6in /  1002.7hPa NW 2.9mph /  4.7km/h 7mph /  11.3km/h 84% 0in /  0.0mm 97 W/m2
12:21 34.7 °F /  1.5 °C 30.7 °F /  -0.7 °C 29.6in /  1002.7hPa West 2.9mph /  4.7km/h 9mph /  14.5km/h 85% 0in /  0.0mm 185 W/m2
12:26 35.1 °F /  1.7 °C 30.9 °F /  -0.6 °C 29.6in /  1002.7hPa NW 2.9mph /  4.7km/h 12mph /  19.3km/h 85% 0in /  0.0mm 244 W/m2
12:31 35.2 °F /  1.8 °C 30.9 °F /  -0.6 °C 29.6in /  1002.7hPa WNW 2.9mph /  4.7km/h 5mph /  8km/h 84% 0in /  0.0mm 207 W/m2
12:36 35.4 °F /  1.9 °C 31.1 °F /  -0.5 °C 29.6in /  1002.4hPa West 2.9mph /  4.7km/h 4mph /  6.4km/h 84% 0in /  0.0mm 160 W/m2
12:41 35.6 °F /  2 °C 30.9 °F /  -0.6 °C 29.6in /  1002.4hPa West 2mph /  3.2km/h 4mph /  6.4km/h 83% 0in /  0.0mm 91 W/m2
12:46 35.4 °F /  1.9 °C 30.2 °F /  -1 °C 29.6in /  1002.4hPa WNW 2.9mph /  4.7km/h 10mph /  16.1km/h 81% 0in /  0.0mm 83 W/m2
12:51 35.2 °F /  1.8 °C 30.4 °F /  -0.9 °C 29.6in /  1002.4hPa WSW 2.9mph /  4.7km/h 10mph /  16.1km/h 82% 0in /  0.0mm 98 W/m2
12:56 35.2 °F /  1.8 °C 30.4 °F /  -0.9 °C 29.6in /  1002.4hPa NNW 0.9mph /  1.4km/h 3mph /  4.8km/h 82% 0in /  0.0mm 107 W/m2
13:01 35.2 °F /  1.8 °C 30.6 °F /  -0.8 °C 29.6in /  1002.4hPa WNW 2.9mph /  4.7km/h 10mph /  16.1km/h 83% 0in /  0.0mm 109 W/m2
13:06 35.4 °F /  1.9 °C 30.7 °F /  -0.7 °C 29.6in /  1002.4hPa SW 2mph /  3.2km/h 7mph /  11.3km/h 83% 0in /  0.0mm 169 W/m2
13:11 35.8 °F /  2.1 °C 30.7 °F /  -0.7 °C 29.6in /  1002.4hPa WNW 2mph /  3.2km/h 10mph /  16.1km/h 82% 0in /  0.0mm 139 W/m2
13:17 36 °F /  2.2 °C 30.9 °F /  -0.6 °C 29.6in /  1002.0hPa WSW 2.9mph /  4.7km/h 4mph /  6.4km/h 82% 0in /  0.0mm 97 W/m2
13:22 36.1 °F /  2.3 °C 31.1 °F /  -0.5 °C 29.6in /  1002.0hPa WNW 0.9mph /  1.4km/h 5mph /  8km/h 82% 0in /  0.0mm 102 W/m2
13:27 36.1 °F /  2.3 °C 30.9 °F /  -0.6 °C 29.6in /  1002.0hPa WSW 2.9mph /  4.7km/h 5mph /  8km/h 81% 0in /  0.0mm 109 W/m2
13:32 36.1 °F /  2.3 °C 31.1 °F /  -0.5 °C 29.6in /  1002.0hPa NW 0.9mph /  1.4km/h 2mph /  3.2km/h 82% 0in /  0.0mm 135 W/m2
13:37 36.3 °F /  2.4 °C 31.3 °F /  -0.4 °C 29.6in /  1002.0hPa WNW 2mph /  3.2km/h 3mph /  4.8km/h 82% 0in /  0.0mm 118 W/m2
13:42 36.5 °F /  2.5 °C 31.5 °F /  -0.3 °C 29.6in /  1002.0hPa WNW 0.9mph /  1.4km/h 2mph /  3.2km/h 82% 0in /  0.0mm 144 W/m2
13:47 36.7 °F /  2.6 °C 31.6 °F /  -0.2 °C 29.6in /  1002.0hPa WSW 0.9mph /  1.4km/h 3mph /  4.8km/h 82% 0in /  0.0mm 137 W/m2
13:52 36.9 °F /  2.7 °C 31.8 °F /  -0.1 °C 29.6in /  1001.7hPa Calm   1mph /  1.6km/h 82% 0in /  0.0mm 125 W/m2
13:57 37 °F /  2.8 °C 31.8 °F /  -0.1 °C 29.6in /  1002.0hPa WNW 2mph /  3.2km/h 7mph /  11.3km/h 81% 0in /  0.0mm 158 W/m2
14:02 37 °F /  2.8 °C 30.7 °F /  -0.7 °C 29.6in /  1001.7hPa SW 2.9mph /  4.7km/h 6mph /  9.7km/h 78% 0in /  0.0mm 172 W/m2
14:07 37.2 °F /  2.9 °C 30.7 °F /  -0.7 °C 29.6in /  1001.7hPa NW 0.9mph /  1.4km/h 1mph /  1.6km/h 77% 0in /  0.0mm 169 W/m2
14:12 37.6 °F /  3.1 °C 30.7 °F /  -0.7 °C 29.6in /  1001.7hPa WNW 0.9mph /  1.4km/h 7mph /  11.3km/h 76% 0in /  0.0mm 156 W/m2
14:17 37.8 °F /  3.2 °C 30.9 °F /  -0.6 °C 29.6in /  1001.7hPa NW 6.9mph /  11.1km/h 8mph /  12.9km/h 76% 0in /  0.0mm 155 W/m2
14:22 37.8 °F /  3.2 °C 30.6 °F /  -0.8 °C 29.6in /  1001.7hPa WNW 2.9mph /  4.7km/h 6mph /  9.7km/h 75% 0in /  0.0mm 151 W/m2
14:27 37.8 °F /  3.2 °C 30.6 °F /  -0.8 °C 29.6in /  1001.7hPa WNW 4mph /  6.4km/h 4mph /  6.4km/h 75% 0in /  0.0mm 111 W/m2
14:32 37.8 °F /  3.2 °C 30.6 °F /  -0.8 °C 29.6in /  1001.4hPa WNW 2mph /  3.2km/h 4mph /  6.4km/h 75% 0in /  0.0mm 121 W/m2
14:37 37.8 °F /  3.2 °C 30.2 °F /  -1 °C 29.6in /  1001.4hPa NW 4mph /  6.4km/h 7mph /  11.3km/h 74% 0in /  0.0mm 158 W/m2
14:42 37.8 °F /  3.2 °C 30.2 °F /  -1 °C 29.6in /  1001.4hPa WNW 0.9mph /  1.4km/h 2mph /  3.2km/h 74% 0in /  0.0mm 151 W/m2
14:47 37.8 °F /  3.2 °C 30.6 °F /  -0.8 °C 29.6in /  1001.4hPa WNW 6.9mph /  11.1km/h 8mph /  12.9km/h 75% 0in /  0.0mm 113 W/m2
14:52 37.6 °F /  3.1 °C 30 °F /  -1.1 °C 29.6in /  1001.4hPa Calm   6mph /  9.7km/h 74% 0in /  0.0mm 107 W/m2
14:57 37.6 °F /  3.1 °C 30 °F /  -1.1 °C 29.6in /  1001.4hPa WNW 2mph /  3.2km/h 4mph /  6.4km/h 74% 0in /  0.0mm 109 W/m2
15:02 37.6 °F /  3.1 °C 30 °F /  -1.1 °C 29.6in /  1001.4hPa NW 2mph /  3.2km/h 3mph /  4.8km/h 74% 0in /  0.0mm 91 W/m2
15:07 37.6 °F /  3.1 °C 30.4 °F /  -0.9 °C 29.6in /  1001.4hPa NE 2.9mph /  4.7km/h 3mph /  4.8km/h 75% 0in /  0.0mm 90 W/m2
15:12 37.6 °F /  3.1 °C 30.4 °F /  -0.9 °C 29.6in /  1001.4hPa West 6mph /  9.7km/h 7mph /  11.3km/h 75% 0in /  0.0mm 77 W/m2
15:17 37.6 °F /  3.1 °C 30.4 °F /  -0.9 °C 29.6in /  1001.4hPa NW 2mph /  3.2km/h 2mph /  3.2km/h 75% 0in /  0.0mm 77 W/m2
15:22 37.6 °F /  3.1 °C 30.4 °F /  -0.9 °C 29.6in /  1001.4hPa ENE 0.9mph /  1.4km/h 7mph /  11.3km/h 75% 0in /  0.0mm 72 W/m2
15:27 37.6 °F /  3.1 °C 30.4 °F /  -0.9 °C 29.6in /  1001.4hPa ENE 2mph /  3.2km/h 2mph /  3.2km/h 75% 0in /  0.0mm 70 W/m2
15:32 37.6 °F /  3.1 °C 30.4 °F /  -0.9 °C 29.6in /  1001.4hPa ENE 0.9mph /  1.4km/h 1mph /  1.6km/h 75% 0in /  0.0mm 69 W/m2
15:37 37.6 °F /  3.1 °C 30.7 °F /  -0.7 °C 29.6in /  1001.0hPa Calm   2mph /  3.2km/h 76% 0in /  0.0mm 54 W/m2
15:42 37.6 °F /  3.1 °C 30.7 °F /  -0.7 °C 29.6in /  1001.0hPa ENE 0.9mph /  1.4km/h 2mph /  3.2km/h 76% 0in /  0.0mm 53 W/m2
15:47 37.6 °F /  3.1 °C 31.1 °F /  -0.5 °C 29.6in /  1000.7hPa NE 0.9mph /  1.4km/h 1mph /  1.6km/h 77% 0in /  0.0mm 49 W/m2
15:52 37.4 °F /  3 °C 30.9 °F /  -0.6 °C 29.6in /  1000.7hPa ENE 2mph /  3.2km/h 2mph /  3.2km/h 77% 0in /  0.0mm 49 W/m2
15:57 37.4 °F /  3 °C 30.6 °F /  -0.8 °C 29.6in /  1000.7hPa ESE 0.9mph /  1.4km/h 8mph /  12.9km/h 76% 0in /  0.0mm 44 W/m2
16:02 37.4 °F /  3 °C 31.1 °F /  -0.5 °C 29.6in /  1001.0hPa Calm     78% 0in /  0.0mm 40 W/m2
16:07 37.2 °F /  2.9 °C 30.9 °F /  -0.6 °C 29.6in /  1001.0hPa SW 0.9mph /  1.4km/h 8mph /  12.9km/h 78% 0in /  0.0mm 39 W/m2
16:12 37.2 °F /  2.9 °C 30.7 °F /  -0.7 °C 29.6in /  1000.7hPa West 0.9mph /  1.4km/h 2mph /  3.2km/h 77% 0in /  0.0mm 35 W/m2
16:17 37.2 °F /  2.9 °C 30.7 °F /  -0.7 °C 29.6in /  1000.7hPa Calm   2mph /  3.2km/h 77% 0in /  0.0mm 33 W/m2
16:22 37.2 °F /  2.9 °C 30.7 °F /  -0.7 °C 29.6in /  1000.7hPa Calm   1mph /  1.6km/h 77% 0in /  0.0mm 35 W/m2
16:28 37 °F /  2.8 °C 30.7 °F /  -0.7 °C 29.6in /  1000.7hPa ESE 0.9mph /  1.4km/h 2mph /  3.2km/h 78% 0in /  0.0mm 40 W/m2
16:32 37 °F /  2.8 °C 30.7 °F /  -0.7 °C 29.6in /  1000.7hPa East 0.9mph /  1.4km/h 2mph /  3.2km/h 78% 0in /  0.0mm 39 W/m2
16:37 37 °F /  2.8 °C 30.7 °F /  -0.7 °C 29.6in /  1000.7hPa SE 0.9mph /  1.4km/h 2mph /  3.2km/h 78% 0in /  0.0mm 28 W/m2
16:42 36.9 °F /  2.7 °C 30.9 °F /  -0.6 °C 29.6in /  1000.7hPa Calm   1mph /  1.6km/h 79% 0in /  0.0mm 16 W/m2
16:47 36.9 °F /  2.7 °C 30.6 °F /  -0.8 °C 29.6in /  1000.7hPa ESE 0.9mph /  1.4km/h 1mph /  1.6km/h 78% 0in /  0.0mm 12 W/m2
16:52 36.9 °F /  2.7 °C 31.3 °F /  -0.4 °C 29.5in /  1000.3hPa Calm     80% 0in /  0.0mm 12 W/m2
16:57 36.7 °F /  2.6 °C 31.1 °F /  -0.5 °C 29.6in /  1000.7hPa Calm     80% 0in /  0.0mm 11 W/m2
17:02 36.7 °F /  2.6 °C 31.5 °F /  -0.3 °C 29.6in /  1000.7hPa South 0.9mph /  1.4km/h 2mph /  3.2km/h 81% 0in /  0.0mm 9 W/m2
17:07 36.5 °F /  2.5 °C 31.3 °F /  -0.4 °C 29.6in /  1000.7hPa Calm   2mph /  3.2km/h 81% 0in /  0.0mm 7 W/m2
17:12 36.3 °F /  2.4 °C 31.1 °F /  -0.5 °C 29.6in /  1000.7hPa Calm     81% 0in /  0.0mm 5 W/m2
17:17 36.3 °F /  2.4 °C 31.3 °F /  -0.4 °C 29.6in /  1000.7hPa Calm   2mph /  3.2km/h 82% 0in /  0.0mm 0 W/m2
17:22 36.3 °F /  2.4 °C 30.7 °F /  -0.7 °C 29.6in /  1000.7hPa West 0.9mph /  1.4km/h 5mph /  8km/h 80% 0in /  0.0mm 0 W/m2
17:27 36.5 °F /  2.5 °C 30.9 °F /  -0.6 °C 29.6in /  1000.7hPa Calm   3mph /  4.8km/h 80% 0in /  0.0mm 0 W/m2
17:32 36.5 °F /  2.5 °C 30.6 °F /  -0.8 °C 29.5in /  1000.3hPa WNW 2mph /  3.2km/h 2mph /  3.2km/h 79% 0in /  0.0mm 0 W/m2
17:37 36.7 °F /  2.6 °C 30.7 °F /  -0.7 °C 29.5in /  1000.3hPa NNW 0.9mph /  1.4km/h 2mph /  3.2km/h 79% 0in /  0.0mm 0 W/m2
17:42 36.7 °F /  2.6 °C 30.7 °F /  -0.7 °C 29.5in /  1000.3hPa NNW 0.9mph /  1.4km/h 2mph /  3.2km/h 79% 0in /  0.0mm 0 W/m2
17:47 36.7 °F /  2.6 °C 30.7 °F /  -0.7 °C 29.5in /  1000.3hPa NNE 2mph /  3.2km/h 3mph /  4.8km/h 79% 0in /  0.0mm 0 W/m2
17:52 36.7 °F /  2.6 °C 30.7 °F /  -0.7 °C 29.5in /  1000.3hPa Calm   6mph /  9.7km/h 79% 0in /  0.0mm 0 W/m2
17:57 36.5 °F /  2.5 °C 30.6 °F /  -0.8 °C 29.5in /  1000.3hPa NNE 2mph /  3.2km/h 3mph /  4.8km/h 79% 0in /  0.0mm 0 W/m2
18:02 36.5 °F /  2.5 °C 30.6 °F /  -0.8 °C 29.5in /  1000.3hPa Calm   6mph /  9.7km/h 79% 0in /  0.0mm 0 W/m2
18:07 36.3 °F /  2.4 °C 30.4 °F /  -0.9 °C 29.5in /  1000.3hPa NNE 0.9mph /  1.4km/h 2mph /  3.2km/h 79% 0in /  0.0mm 0 W/m2
18:12 36.3 °F /  2.4 °C 30.4 °F /  -0.9 °C 29.5in /  1000.0hPa NE 0.9mph /  1.4km/h 4mph /  6.4km/h 79% 0in /  0.0mm 0 W/m2
18:17 36.1 °F /  2.3 °C 30.6 °F /  -0.8 °C 29.5in /  1000.0hPa NE 2mph /  3.2km/h 2mph /  3.2km/h 80% 0in /  0.0mm 0 W/m2
18:22 36.1 °F /  2.3 °C 30.2 °F /  -1 °C 29.5in /  1000.0hPa ENE 0.9mph /  1.4km/h 4mph /  6.4km/h 79% 0in /  0.0mm 0 W/m2
18:27 36.1 °F /  2.3 °C 30.6 °F /  -0.8 °C 29.5in /  1000.0hPa Calm   2mph /  3.2km/h 80% 0in /  0.0mm 0 W/m2
18:32 36 °F /  2.2 °C 30.4 °F /  -0.9 °C 29.5in /  1000.0hPa Calm   2mph /  3.2km/h 80% 0in /  0.0mm 0 W/m2
18:37 36 °F /  2.2 °C 30.7 °F /  -0.7 °C 29.5in /  1000.0hPa Calm   1mph /  1.6km/h 81% 0in /  0.0mm 0 W/m2
18:42 35.8 °F /  2.1 °C 30.7 °F /  -0.7 °C 29.5in /  1000.0hPa Calm   1mph /  1.6km/h 82% 0in /  0.0mm 0 W/m2
18:47 35.6 °F /  2 °C 30.9 °F /  -0.6 °C 29.5in /  999.7hPa ENE 0.9mph /  1.4km/h 2mph /  3.2km/h 83% 0in /  0.0mm 0 W/m2
18:52 35.2 °F /  1.8 °C 30.9 °F /  -0.6 °C 29.5in /  999.7hPa Calm     84% 0in /  0.0mm 0 W/m2
18:57 35.1 °F /  1.7 °C 30.7 °F /  -0.7 °C 29.5in /  999.7hPa Calm   1mph /  1.6km/h 84% 0in /  0.0mm 0 W/m2
19:02 35.1 °F /  1.7 °C 30.9 °F /  -0.6 °C 29.5in /  999.7hPa Calm   1mph /  1.6km/h 85% 0in /  0.0mm 0 W/m2
19:07 34.9 °F /  1.6 °C 31.1 °F /  -0.5 °C 29.5in /  999.7hPa Calm   2mph /  3.2km/h 86% 0in /  0.0mm 0 W/m2
19:12 34.7 °F /  1.5 °C 30.9 °F /  -0.6 °C 29.5in /  999.7hPa Calm   1mph /  1.6km/h 86% 0in /  0.0mm 0 W/m2
19:17 34.5 °F /  1.4 °C 30.7 °F /  -0.7 °C 29.5in /  999.7hPa Calm   2mph /  3.2km/h 86% 0in /  0.0mm 0 W/m2
19:22 34.5 °F /  1.4 °C 30.7 °F /  -0.7 °C 29.5in /  999.7hPa Calm     86% 0in /  0.0mm 0 W/m2
19:27 34.9 °F /  1.6 °C 30.9 °F /  -0.6 °C 29.5in /  999.7hPa Calm   3mph /  4.8km/h 85% 0in /  0.0mm 0 W/m2
19:32 35.1 °F /  1.7 °C 30.9 °F /  -0.6 °C 29.5in /  999.7hPa Calm   2mph /  3.2km/h 85% 0in /  0.0mm 0 W/m2
19:37 35.1 °F /  1.7 °C 30.9 °F /  -0.6 °C 29.5in /  999.7hPa North 2mph /  3.2km/h 2mph /  3.2km/h 85% 0in /  0.0mm 0 W/m2
19:42 35.2 °F /  1.8 °C 31.1 °F /  -0.5 °C 29.5in /  999.7hPa NNW 0.9mph /  1.4km/h 4mph /  6.4km/h 85% 0in /  0.0mm 0 W/m2
19:47 35.1 °F /  1.7 °C 31.3 °F /  -0.4 °C 29.5in /  999.3hPa NE 2mph /  3.2km/h 2mph /  3.2km/h 86% 0in /  0.0mm 0 W/m2
19:52 35.1 °F /  1.7 °C 31.6 °F /  -0.2 °C 29.5in /  999.3hPa North 2mph /  3.2km/h 3mph /  4.8km/h 87% 0in /  0.0mm 0 W/m2
19:57 34.9 °F /  1.6 °C 31.6 °F /  -0.2 °C 29.5in /  999.3hPa East 0.9mph /  1.4km/h 3mph /  4.8km/h 88% 0in /  0.0mm 0 W/m2
20:02 34.7 °F /  1.5 °C 31.5 °F /  -0.3 °C 29.5in /  999.3hPa NE 0.9mph /  1.4km/h 3mph /  4.8km/h 88% 0in /  0.0mm 0 W/m2
20:07 34.5 °F /  1.4 °C 31.6 °F /  -0.2 °C 29.5in /  999.3hPa East 2mph /  3.2km/h 4mph /  6.4km/h 89% 0in /  0.0mm 0 W/m2
20:12 34.3 °F /  1.3 °C 31.6 °F /  -0.2 °C 29.5in /  999.0hPa ENE 2mph /  3.2km/h 3mph /  4.8km/h 90% 0in /  0.0mm 0 W/m2
20:17 34.2 °F /  1.2 °C 31.5 °F /  -0.3 °C 29.5in /  999.0hPa East 0.9mph /  1.4km/h 4mph /  6.4km/h 90% 0in /  0.0mm 0 W/m2
20:22 34.2 °F /  1.2 °C 31.8 °F /  -0.1 °C 29.5in /  998.6hPa ENE 4mph /  6.4km/h 5mph /  8km/h 91% 0in /  0.0mm 0 W/m2
20:27 34 °F /  1.1 °C 31.6 °F /  -0.2 °C 29.5in /  998.6hPa ESE 2.9mph /  4.7km/h 4mph /  6.4km/h 91% 0in /  0.0mm 0 W/m2
20:32 33.8 °F /  1 °C 31.6 °F /  -0.2 °C 29.5in /  998.6hPa East 2.9mph /  4.7km/h 7mph /  11.3km/h 92% 0in /  0.0mm 0 W/m2
20:37 33.6 °F /  0.9 °C 31.5 °F /  -0.3 °C 29.5in /  998.6hPa ENE 2mph /  3.2km/h 4mph /  6.4km/h 92% 0in /  0.0mm 0 W/m2
20:42 33.4 °F /  0.8 °C 31.6 °F /  -0.2 °C 29.5in /  998.6hPa ESE 2.9mph /  4.7km/h 8mph /  12.9km/h 93% 0in /  0.0mm 0 W/m2
20:47 33.4 °F /  0.8 °C 31.6 °F /  -0.2 °C 29.5in /  998.6hPa East 2mph /  3.2km/h 6mph /  9.7km/h 93% 0in /  0.0mm 0 W/m2
20:52 33.4 °F /  0.8 °C 31.6 °F /  -0.2 °C 29.5in /  998.6hPa ENE 2mph /  3.2km/h 8mph /  12.9km/h 93% 0in /  0.0mm 0 W/m2
20:57 33.4 °F /  0.8 °C 31.6 °F /  -0.2 °C 29.5in /  998.3hPa ESE 0.9mph /  1.4km/h 6mph /  9.7km/h 93% 0in /  0.0mm 0 W/m2
21:02 33.3 °F /  0.7 °C 31.6 °F /  -0.2 °C 29.5in /  998.3hPa ESE 4mph /  6.4km/h 4mph /  6.4km/h 94% 0in /  0.0mm 0 W/m2
21:07 33.3 °F /  0.7 °C 31.6 °F /  -0.2 °C 29.5in /  998.3hPa SE 4.9mph /  7.9km/h 6mph /  9.7km/h 94% 0in /  0.0mm 0 W/m2
21:12 33.3 °F /  0.7 °C 31.6 °F /  -0.2 °C 29.5in /  998.3hPa SE 4.9mph /  7.9km/h 10mph /  16.1km/h 94% 0in /  0.0mm 0 W/m2
21:17 33.3 °F /  0.7 °C 31.6 °F /  -0.2 °C 29.5in /  998.3hPa ESE 2.9mph /  4.7km/h 7mph /  11.3km/h 94% 0in /  0.0mm 0 W/m2
21:22 33.3 °F /  0.7 °C 31.6 °F /  -0.2 °C 29.5in /  998.0hPa East 2.9mph /  4.7km/h 10mph /  16.1km/h 94% 0in /  0.0mm 0 W/m2
21:27 33.3 °F /  0.7 °C 31.6 °F /  -0.2 °C 29.5in /  998.0hPa ESE 6.9mph /  11.1km/h 7mph /  11.3km/h 94% 0in /  0.0mm 0 W/m2
21:32 33.3 °F /  0.7 °C 31.6 °F /  -0.2 °C 29.5in /  998.0hPa ENE 2mph /  3.2km/h 8mph /  12.9km/h 94% 0in /  0.0mm 0 W/m2
21:37 33.3 °F /  0.7 °C 31.6 °F /  -0.2 °C 29.5in /  998.0hPa ESE 2mph /  3.2km/h 6mph /  9.7km/h 94% 0in /  0.0mm 0 W/m2
21:42 33.3 °F /  0.7 °C 31.6 °F /  -0.2 °C 29.5in /  998.0hPa NE 4.9mph /  7.9km/h 6mph /  9.7km/h 94% 0in /  0.0mm 0 W/m2
21:47 33.3 °F /  0.7 °C 31.6 °F /  -0.2 °C 29.5in /  998.0hPa ESE 2mph /  3.2km/h 7mph /  11.3km/h 94% 0in /  0.0mm 0 W/m2
21:52 33.3 °F /  0.7 °C 31.6 °F /  -0.2 °C 29.5in /  998.0hPa NE 2.9mph /  4.7km/h 3mph /  4.8km/h 94% 0in /  0.0mm 0 W/m2
21:57 33.3 °F /  0.7 °C 31.6 °F /  -0.2 °C 29.5in /  998.0hPa ENE 2.9mph /  4.7km/h 7mph /  11.3km/h 94% 0in /  0.0mm 0 W/m2
22:02 33.3 °F /  0.7 °C 31.6 °F /  -0.2 °C 29.5in /  998.0hPa ENE 0.9mph /  1.4km/h 3mph /  4.8km/h 94% 0in /  0.0mm 0 W/m2
22:07 33.3 °F /  0.7 °C 31.6 °F /  -0.2 °C 29.5in /  998.0hPa North 2mph /  3.2km/h 5mph /  8km/h 94% 0in /  0.0mm 0 W/m2
22:12 33.3 °F /  0.7 °C 31.6 °F /  -0.2 °C 29.5in /  998.0hPa ENE 2mph /  3.2km/h 2mph /  3.2km/h 94% 0in /  0.0mm 0 W/m2
22:17 33.3 °F /  0.7 °C 31.6 °F /  -0.2 °C 29.5in /  998.0hPa ENE 0.9mph /  1.4km/h 1mph /  1.6km/h 94% 0in /  0.0mm 0 W/m2
22:23 33.3 °F /  0.7 °C 31.6 °F /  -0.2 °C 29.5in /  998.0hPa Calm   4mph /  6.4km/h 94% 0in /  0.0mm 0 W/m2
22:28 33.3 °F /  0.7 °C 31.6 °F /  -0.2 °C 29.5in /  998.0hPa NE 2mph /  3.2km/h 4mph /  6.4km/h 94% 0in /  0.0mm 0 W/m2
22:33 33.4 °F /  0.8 °C 31.8 °F /  -0.1 °C 29.5in /  998.0hPa North 0.9mph /  1.4km/h 2mph /  3.2km/h 94% 0in /  0.0mm 0 W/m2
22:38 33.4 °F /  0.8 °C 31.8 °F /  -0.1 °C 29.5in /  998.0hPa Calm   2mph /  3.2km/h 94% 0in /  0.0mm 0 W/m2
22:43 33.4 °F /  0.8 °C 31.8 °F /  -0.1 °C 29.5in /  997.6hPa ESE 0.9mph /  1.4km/h 3mph /  4.8km/h 94% 0in /  0.0mm 0 W/m2
22:48 33.4 °F /  0.8 °C 31.8 °F /  -0.1 °C 29.5in /  998.0hPa Calm   1mph /  1.6km/h 94% 0in /  0.0mm 0 W/m2
22:53 33.6 °F /  0.9 °C 32 °F /  0 °C 29.5in /  998.0hPa Calm   1mph /  1.6km/h 94% 0in /  0.0mm 0 W/m2
22:58 33.6 °F /  0.9 °C 32 °F /  0 °C 29.5in /  997.6hPa NNE 0.9mph /  1.4km/h 2mph /  3.2km/h 94% 0in /  0.0mm 0 W/m2
23:03 33.8 °F /  1 °C 32.2 °F /  0.1 °C 29.5in /  998.0hPa Calm   1mph /  1.6km/h 94% 0in /  0.0mm 0 W/m2
23:08 34 °F /  1.1 °C 32.4 °F /  0.2 °C 29.5in /  998.0hPa ENE 2mph /  3.2km/h 3mph /  4.8km/h 94% 0in /  0.0mm 0 W/m2
23:13 34 °F /  1.1 °C 32.4 °F /  0.2 °C 29.5in /  998.0hPa Calm   2mph /  3.2km/h 94% 0in /  0.0mm 0 W/m2
23:18 34 °F /  1.1 °C 32.4 °F /  0.2 °C 29.5in /  998.0hPa Calm     94% 0in /  0.0mm 0 W/m2
23:23 34 °F /  1.1 °C 32.4 °F /  0.2 °C 29.5in /  997.6hPa East 0.9mph /  1.4km/h 2mph /  3.2km/h 94% 0in /  0.0mm 0 W/m2
23:28 33.8 °F /  1 °C 32.2 °F /  0.1 °C 29.5in /  997.6hPa East 2mph /  3.2km/h 2mph /  3.2km/h 94% 0in /  0.0mm 0 W/m2
23:33 33.8 °F /  1 °C 32.2 °F /  0.1 °C 29.5in /  997.6hPa East 0.9mph /  1.4km/h 2mph /  3.2km/h 94% 0in /  0.0mm 0 W/m2
23:38 33.8 °F /  1 °C 32.2 °F /  0.1 °C 29.5in /  997.6hPa ENE 0.9mph /  1.4km/h 4mph /  6.4km/h 94% 0in /  0.0mm 0 W/m2
23:43 33.8 °F /  1 °C 32.2 °F /  0.1 °C 29.5in /  997.6hPa ENE 4mph /  6.4km/h 4mph /  6.4km/h 94% 0in /  0.0mm 0 W/m2
23:48 33.8 °F /  1 °C 32.2 °F /  0.1 °C 29.5in /  997.6hPa ENE 0.9mph /  1.4km/h 3mph /  4.8km/h 94% 0in /  0.0mm 0 W/m2
23:53 33.8 °F /  1 °C 32.2 °F /  0.1 °C 29.5in /  997.6hPa Calm   2mph /  3.2km/h 94% 0in /  0.0mm 0 W/m2
23:58 33.8 °F /  1 °C 32.2 °F /  0.1 °C 29.5in /  997.6hPa East 2mph /  3.2km/h 4mph /  6.4km/h 94% 0in /  0.0mm 0 W/m2
Juneau County Weather
Compliments of Weather Underground - 4 mb